createdAt,value
2023-01-19T00:00:55.052Z,100.00
2023-01-19T00:03:22.453Z,100.00
2023-01-19T00:05:49.588Z,100.00
2023-01-19T00:08:16.871Z,100.00
2023-01-19T00:10:48.920Z,100.00
2023-01-19T00:13:16.077Z,100.00
2023-01-19T00:15:43.484Z,100.00
2023-01-19T00:18:11.360Z,100.00
2023-01-19T00:20:39.373Z,100.00
2023-01-19T00:23:08.247Z,100.00
2023-01-19T00:25:36.477Z,100.00
2023-01-19T00:28:03.701Z,100.00
2023-01-19T00:30:30.861Z,100.00
2023-01-19T00:32:58.842Z,100.00
2023-01-19T00:35:26.365Z,100.00
2023-01-19T00:37:53.747Z,100.00
2023-01-19T00:40:21.262Z,100.00
2023-01-19T00:42:48.652Z,100.00
2023-01-19T00:45:19.373Z,100.00
2023-01-19T00:47:48.195Z,100.00
2023-01-19T00:50:16.869Z,100.00
2023-01-19T00:52:45.823Z,100.00
2023-01-19T00:55:14.890Z,100.00
2023-01-19T00:57:42.213Z,100.00
2023-01-19T01:00:14.681Z,100.00
2023-01-19T01:02:44.035Z,100.00
2023-01-19T01:05:11.957Z,100.00
2023-01-19T01:07:44.641Z,100.00
2023-01-19T01:10:18.455Z,100.00
2023-01-19T01:12:56.764Z,100.00
2023-01-19T01:15:27.507Z,100.00
2023-01-19T01:17:54.973Z,100.00
2023-01-19T01:20:28.066Z,100.00
2023-01-19T01:22:56.976Z,100.00
2023-01-19T01:25:25.568Z,100.00
2023-01-19T01:27:52.998Z,100.00
2023-01-19T01:30:21.160Z,100.00
2023-01-19T01:32:49.024Z,100.00
2023-01-19T01:35:16.925Z,100.00
2023-01-19T01:37:44.710Z,100.00
2023-01-19T01:40:16.906Z,100.00
2023-01-19T01:42:45.429Z,100.00
2023-01-19T01:45:38.304Z,100.00
2023-01-19T01:48:09.116Z,100.00
2023-01-19T01:51:00.952Z,100.00
2023-01-19T01:53:29.787Z,100.00
2023-01-19T01:55:56.876Z,100.00
2023-01-19T01:58:24.038Z,100.00
2023-01-19T02:01:10.170Z,100.00
2023-01-19T02:03:37.702Z,100.00
2023-01-19T02:06:07.227Z,100.00
2023-01-19T02:08:58.407Z,100.00
2023-01-19T02:11:44.438Z,100.00
2023-01-19T02:14:11.538Z,100.00
2023-01-19T02:16:39.032Z,100.00
2023-01-19T02:19:07.442Z,100.00
2023-01-19T02:21:56.338Z,100.00
2023-01-19T02:24:24.048Z,100.00
2023-01-19T02:26:51.301Z,100.00
2023-01-19T02:29:20.548Z,100.00
2023-01-19T02:31:47.986Z,100.00
2023-01-19T02:34:18.097Z,100.00
2023-01-19T02:37:03.436Z,100.00
2023-01-19T02:39:41.557Z,100.00
2023-01-19T02:42:13.383Z,100.00
2023-01-19T02:44:43.973Z,100.00
2023-01-19T02:47:11.168Z,100.00
2023-01-19T02:49:38.455Z,100.00
2023-01-19T02:52:06.213Z,100.00
2023-01-19T02:54:51.575Z,100.00
2023-01-19T02:58:09.942Z,100.00
2023-01-19T03:00:45.876Z,100.00
2023-01-19T03:03:20.625Z,100.00
2023-01-19T03:06:09.081Z,100.00
2023-01-19T03:09:08.971Z,100.00
2023-01-19T03:11:40.213Z,100.00
2023-01-19T03:14:14.854Z,100.00
2023-01-19T03:16:50.386Z,100.00
2023-01-19T03:19:22.250Z,100.00
2023-01-19T03:21:56.212Z,100.00
2023-01-19T03:24:24.475Z,100.00
2023-01-19T03:27:07.244Z,100.00
2023-01-19T03:29:35.259Z,100.00
2023-01-19T03:32:10.337Z,100.00
2023-01-19T03:34:39.410Z,100.00
2023-01-19T03:37:07.730Z,100.00
2023-01-19T03:39:35.078Z,100.00
2023-01-19T03:42:05.322Z,100.00
2023-01-19T03:44:35.185Z,100.00
2023-01-19T03:47:02.868Z,100.00
2023-01-19T03:49:33.591Z,100.00
2023-01-19T03:52:01.293Z,100.00
2023-01-19T03:54:28.825Z,100.00
2023-01-19T03:56:56.060Z,100.00
2023-01-19T03:59:23.251Z,100.00
2023-01-19T04:01:50.724Z,100.00
2023-01-19T04:04:18.194Z,100.00
2023-01-19T04:06:45.348Z,99.76
2023-01-19T04:09:12.491Z,99.96
2023-01-19T04:11:39.955Z,100.00
2023-01-19T04:14:07.151Z,99.99
2023-01-19T04:16:34.406Z,99.86
2023-01-19T04:19:01.860Z,99.32
2023-01-19T04:21:28.983Z,99.21
2023-01-19T04:23:56.078Z,100.00
2023-01-19T04:26:24.079Z,100.00
2023-01-19T04:28:51.218Z,100.00
2023-01-19T04:31:19.377Z,100.00
2023-01-19T04:33:46.793Z,100.00
2023-01-19T04:36:13.861Z,100.00
2023-01-19T04:38:40.974Z,100.00
2023-01-19T04:41:08.354Z,100.00
2023-01-19T04:43:35.443Z,100.00
2023-01-19T04:46:02.547Z,100.00
2023-01-19T04:48:32.872Z,100.00
2023-01-19T04:50:59.984Z,100.00
2023-01-19T04:53:27.085Z,100.00
2023-01-19T04:55:55.379Z,100.00
2023-01-19T04:58:22.521Z,100.00
2023-01-19T05:00:51.209Z,100.00
2023-01-19T05:03:20.109Z,100.00
2023-01-19T05:05:47.298Z,100.00
2023-01-19T05:08:14.401Z,100.00
2023-01-19T05:10:41.801Z,100.00
2023-01-19T05:13:08.976Z,100.00
2023-01-19T05:15:36.043Z,100.00
2023-01-19T05:18:03.727Z,100.00
2023-01-19T05:20:30.800Z,100.00
2023-01-19T05:22:58.729Z,98.55
2023-01-19T05:25:26.419Z,97.66
2023-01-19T05:27:53.533Z,96.66
2023-01-19T05:30:20.795Z,96.74
2023-01-19T05:32:48.162Z,96.57
2023-01-19T05:35:18.261Z,97.41
2023-01-19T05:37:47.493Z,97.16
2023-01-19T05:40:14.635Z,97.88
2023-01-19T05:42:41.735Z,97.31
2023-01-19T05:45:09.581Z,96.98
2023-01-19T05:47:36.658Z,96.47
2023-01-19T05:50:04.294Z,97.68
2023-01-19T05:52:31.681Z,97.85
2023-01-19T05:54:58.785Z,98.68
2023-01-19T05:57:25.851Z,98.05
2023-01-19T05:59:53.225Z,97.02
2023-01-19T06:02:20.391Z,97.40
2023-01-19T06:04:47.764Z,97.18
2023-01-19T06:07:14.899Z,98.62
2023-01-19T06:09:42.010Z,98.38
2023-01-19T06:12:09.588Z,98.37
2023-01-19T06:14:37.994Z,98.22
2023-01-19T06:17:06.670Z,98.42
2023-01-19T06:19:34.951Z,98.20
2023-01-19T06:22:02.854Z,99.12
2023-01-19T06:24:30.117Z,99.95
2023-01-19T06:26:57.485Z,98.73
2023-01-19T06:29:25.435Z,100.00
2023-01-19T06:31:52.845Z,100.00
2023-01-19T06:34:20.616Z,99.92
2023-01-19T06:36:47.849Z,99.48
2023-01-19T06:39:14.992Z,100.00
2023-01-19T06:41:42.403Z,100.00
2023-01-19T06:44:09.568Z,100.00
2023-01-19T06:46:36.634Z,100.00
2023-01-19T06:49:04.280Z,100.00
2023-01-19T06:51:31.393Z,100.00
2023-01-19T06:53:59.135Z,100.00
2023-01-19T06:56:27.426Z,100.00
2023-01-19T06:58:55.259Z,100.00
2023-01-19T07:01:22.513Z,100.00
2023-01-19T07:03:49.952Z,100.00
2023-01-19T07:06:17.041Z,100.00
2023-01-19T07:08:44.159Z,100.00
2023-01-19T07:11:25.748Z,100.00
2023-01-19T07:13:59.316Z,100.00
2023-01-19T07:16:26.944Z,100.00
2023-01-19T07:18:54.177Z,100.00
2023-01-19T07:21:21.714Z,100.00
2023-01-19T07:23:52.822Z,100.00
2023-01-19T07:26:23.702Z,100.00
2023-01-19T07:28:52.319Z,100.00
2023-01-19T07:31:19.737Z,100.00
2023-01-19T07:33:46.909Z,100.00
2023-01-19T07:36:14.672Z,100.00
2023-01-19T07:38:41.821Z,100.00
2023-01-19T07:41:10.067Z,100.00
2023-01-19T07:43:37.578Z,100.00
2023-01-19T07:46:06.001Z,100.00
2023-01-19T07:48:33.285Z,100.00
2023-01-19T07:51:02.075Z,100.00
2023-01-19T07:53:29.351Z,100.00
2023-01-19T07:55:57.282Z,100.00
2023-01-19T07:58:25.327Z,100.00
2023-01-19T08:00:52.641Z,100.00
2023-01-19T08:03:20.336Z,100.00
2023-01-19T08:05:52.133Z,100.00
2023-01-19T08:08:20.191Z,100.00
2023-01-19T08:10:50.458Z,100.00
2023-01-19T08:13:18.580Z,100.00
2023-01-19T08:15:49.548Z,100.00
2023-01-19T08:18:17.444Z,100.00
2023-01-19T08:20:44.772Z,100.00
2023-01-19T08:23:12.599Z,100.00
2023-01-19T08:25:45.284Z,100.00
2023-01-19T08:28:14.786Z,100.00
2023-01-19T08:30:44.381Z,100.00
2023-01-19T08:33:12.670Z,100.00
2023-01-19T08:35:42.414Z,100.00
2023-01-19T08:38:10.450Z,100.00
2023-01-19T08:40:39.552Z,100.00
2023-01-19T08:43:13.255Z,100.00
2023-01-19T08:45:44.894Z,100.00
2023-01-19T08:48:13.600Z,100.00
2023-01-19T08:50:40.765Z,100.00
2023-01-19T08:53:08.524Z,100.00
2023-01-19T08:55:37.143Z,100.00
2023-01-19T08:58:05.266Z,100.00
2023-01-19T09:00:33.882Z,100.00
2023-01-19T09:03:04.066Z,100.00
2023-01-19T09:05:35.657Z,100.00
2023-01-19T09:08:04.326Z,100.00
2023-01-19T09:10:35.796Z,100.00
2023-01-19T09:13:08.571Z,100.00
2023-01-19T09:15:37.758Z,100.00
2023-01-19T09:18:07.436Z,100.00
2023-01-19T09:20:36.224Z,100.00
2023-01-19T09:23:03.554Z,100.00
2023-01-19T09:25:31.605Z,100.00
2023-01-19T09:28:02.820Z,100.00
2023-01-19T09:30:30.446Z,100.00
2023-01-19T09:33:02.028Z,100.00
2023-01-19T09:35:29.095Z,100.00
2023-01-19T09:37:56.586Z,100.00
2023-01-19T09:40:23.757Z,100.00
2023-01-19T09:43:04.575Z,100.00
2023-01-19T09:45:57.119Z,100.00
2023-01-19T09:48:36.388Z,100.00
2023-01-19T09:51:05.792Z,100.00
2023-01-19T09:53:42.604Z,100.00
2023-01-19T09:56:15.549Z,100.00
2023-01-19T09:58:42.803Z,100.00
2023-01-19T10:01:22.738Z,100.00
2023-01-19T10:03:54.411Z,100.00
2023-01-19T10:06:21.832Z,100.00
2023-01-19T10:09:05.223Z,100.00
2023-01-19T10:11:52.641Z,100.00
2023-01-19T10:14:43.097Z,100.00
2023-01-19T10:17:15.526Z,100.00
2023-01-19T10:19:46.687Z,100.00
2023-01-19T10:22:26.092Z,100.00
2023-01-19T10:24:59.333Z,100.00
2023-01-19T10:27:29.714Z,100.00
2023-01-19T10:29:57.644Z,100.00
2023-01-19T10:32:44.473Z,100.00
2023-01-19T10:35:26.178Z,100.00
2023-01-19T10:37:56.644Z,100.00
2023-01-19T10:40:32.651Z,100.00
2023-01-19T10:43:00.158Z,100.00
2023-01-19T10:45:30.812Z,100.00
2023-01-19T10:48:00.578Z,100.00
2023-01-19T10:50:30.921Z,100.00
2023-01-19T10:53:00.605Z,100.00
2023-01-19T10:55:34.371Z,100.00
2023-01-19T10:58:02.031Z,100.00
2023-01-19T11:00:40.918Z,100.00
2023-01-19T11:03:31.621Z,100.00
2023-01-19T11:06:23.136Z,100.00
2023-01-19T11:08:51.852Z,100.00
2023-01-19T11:11:23.687Z,100.00
2023-01-19T11:14:09.254Z,100.00
2023-01-19T11:16:38.747Z,100.00
2023-01-19T11:19:17.602Z,100.00
2023-01-19T11:21:45.124Z,100.00
2023-01-19T11:24:16.497Z,100.00
2023-01-19T11:26:48.809Z,100.00
2023-01-19T11:29:20.725Z,100.00
2023-01-19T11:31:48.802Z,100.00
2023-01-19T11:34:31.888Z,100.00
2023-01-19T11:37:02.146Z,100.00
2023-01-19T11:39:31.404Z,100.00
2023-01-19T11:42:01.719Z,100.00
2023-01-19T11:44:37.218Z,100.00
2023-01-19T11:47:14.251Z,100.00
2023-01-19T11:49:49.455Z,100.00
2023-01-19T11:52:35.023Z,100.00
2023-01-19T11:55:23.569Z,100.00
2023-01-19T11:57:54.298Z,100.00
2023-01-19T12:00:38.214Z,100.00
2023-01-19T12:03:08.773Z,100.00
2023-01-19T12:05:37.244Z,100.00
2023-01-19T12:08:07.014Z,100.00
2023-01-19T12:10:38.468Z,100.00
2023-01-19T12:13:05.675Z,100.00
2023-01-19T12:15:38.924Z,100.00
2023-01-19T12:18:10.331Z,100.00
2023-01-19T12:20:46.797Z,100.00
2023-01-19T12:23:28.067Z,100.00
2023-01-19T12:26:14.061Z,100.00
2023-01-19T12:28:44.567Z,100.00
2023-01-19T12:31:18.192Z,100.00
2023-01-19T12:33:46.092Z,100.00
2023-01-19T12:36:35.553Z,100.00
2023-01-19T12:39:05.628Z,100.00
2023-01-19T12:41:36.106Z,100.00
2023-01-19T12:44:14.024Z,100.00
2023-01-19T12:47:06.415Z,100.00
2023-01-19T12:49:45.482Z,100.00
2023-01-19T12:52:24.854Z,100.00
2023-01-19T12:54:59.050Z,100.00
2023-01-19T12:57:30.733Z,100.00
2023-01-19T13:00:00.748Z,100.00
2023-01-19T13:02:42.183Z,100.00
2023-01-19T13:05:11.391Z,100.00
2023-01-19T13:08:04.910Z,100.00
2023-01-19T13:11:00.620Z,100.00
2023-01-19T13:13:37.427Z,100.00
2023-01-19T13:16:27.936Z,100.00
2023-01-19T13:18:58.869Z,100.00
2023-01-19T13:21:29.358Z,100.00
2023-01-19T13:23:58.440Z,100.00
2023-01-19T13:26:29.454Z,100.00
2023-01-19T13:29:02.313Z,100.00
2023-01-19T13:31:35.022Z,100.00
2023-01-19T13:34:02.940Z,100.00
2023-01-19T13:36:35.694Z,100.00
2023-01-19T13:39:07.663Z,100.00
2023-01-19T13:41:38.435Z,100.00
2023-01-19T13:44:22.320Z,100.00
2023-01-19T13:46:50.801Z,100.00
2023-01-19T13:49:26.155Z,100.00
2023-01-19T13:52:11.853Z,100.00
2023-01-19T13:54:50.323Z,100.00
2023-01-19T13:57:24.181Z,100.00
2023-01-19T14:00:14.148Z,100.00
2023-01-19T14:03:23.628Z,100.00
2023-01-19T14:05:53.233Z,100.00
2023-01-19T14:08:22.219Z,100.00
2023-01-19T14:10:52.011Z,100.00
2023-01-19T14:13:21.694Z,100.00
2023-01-19T14:15:50.721Z,100.00
2023-01-19T14:18:18.785Z,100.00
2023-01-19T14:21:09.182Z,100.00
2023-01-19T14:23:51.251Z,100.00
2023-01-19T14:26:41.663Z,100.00
2023-01-19T14:29:27.909Z,100.00
2023-01-19T14:32:00.833Z,100.00
2023-01-19T14:34:31.183Z,100.00
2023-01-19T14:36:58.870Z,100.00
2023-01-19T14:39:28.478Z,100.00
2023-01-19T14:41:58.223Z,100.00
2023-01-19T14:44:37.349Z,100.00
2023-01-19T14:47:06.205Z,100.00
2023-01-19T14:49:33.203Z,99.23
2023-01-19T14:52:02.889Z,100.00
2023-01-19T14:54:39.941Z,99.41
2023-01-19T14:57:12.784Z,99.26
2023-01-19T14:59:41.011Z,100.00
2023-01-19T15:02:10.014Z,99.85
2023-01-19T15:04:37.220Z,100.00
2023-01-19T15:07:04.735Z,99.90
2023-01-19T15:09:32.089Z,99.67
2023-01-19T15:11:59.405Z,99.90
2023-01-19T15:14:27.843Z,99.77
2023-01-19T15:16:55.004Z,99.04
2023-01-19T15:19:22.225Z,99.65
2023-01-19T15:21:49.724Z,98.18
2023-01-19T15:24:17.988Z,98.53
2023-01-19T15:26:45.773Z,98.46
2023-01-19T15:29:25.225Z,99.07
2023-01-19T15:31:52.898Z,97.40
2023-01-19T15:34:20.432Z,100.00
2023-01-19T15:36:47.577Z,97.72
2023-01-19T15:39:14.723Z,97.76
2023-01-19T15:41:42.243Z,100.00
2023-01-19T15:44:10.780Z,100.00
2023-01-19T15:46:38.159Z,98.70
2023-01-19T15:49:08.492Z,98.83
2023-01-19T15:51:35.655Z,99.65
2023-01-19T15:54:02.811Z,98.67
2023-01-19T15:56:31.300Z,98.21
2023-01-19T15:58:58.918Z,99.45
2023-01-19T16:01:31.544Z,97.41
2023-01-19T16:04:05.453Z,96.22
2023-01-19T16:06:33.342Z,96.80
2023-01-19T16:09:01.584Z,97.89
2023-01-19T16:11:33.431Z,99.42
2023-01-19T16:14:01.166Z,100.00
2023-01-19T16:16:28.858Z,98.17
2023-01-19T16:18:57.363Z,97.34
2023-01-19T16:21:24.919Z,97.75
2023-01-19T16:23:52.163Z,97.93
2023-01-19T16:26:24.417Z,98.74
2023-01-19T16:28:51.954Z,97.84
2023-01-19T16:31:19.126Z,98.37
2023-01-19T16:33:46.284Z,98.28
2023-01-19T16:36:26.767Z,97.81
2023-01-19T16:38:54.744Z,97.49
2023-01-19T16:41:22.191Z,98.55
2023-01-19T16:43:53.355Z,98.56
2023-01-19T16:46:26.281Z,99.22
2023-01-19T16:48:54.254Z,98.51
2023-01-19T16:51:21.499Z,98.68
2023-01-19T16:53:49.658Z,97.40
2023-01-19T16:56:17.264Z,97.60
2023-01-19T16:58:44.762Z,99.38
2023-01-19T17:01:14.869Z,99.46
2023-01-19T17:03:42.926Z,98.81
2023-01-19T17:06:12.216Z,97.85
2023-01-19T17:08:39.910Z,97.90
2023-01-19T17:11:20.631Z,98.81
2023-01-19T17:13:48.708Z,98.30
2023-01-19T17:16:16.316Z,98.99
2023-01-19T17:18:43.539Z,99.67
2023-01-19T17:21:11.231Z,99.59
2023-01-19T17:23:42.865Z,100.00
2023-01-19T17:26:10.388Z,100.00
2023-01-19T17:28:37.846Z,99.70
2023-01-19T17:31:12.888Z,99.99
2023-01-19T17:33:42.070Z,100.00
2023-01-19T17:36:12.980Z,99.80
2023-01-19T17:38:40.472Z,99.60
2023-01-19T17:41:17.998Z,100.00
2023-01-19T17:43:45.736Z,98.75
2023-01-19T17:46:13.468Z,99.03
2023-01-19T17:48:43.549Z,98.75
2023-01-19T17:51:13.117Z,98.79
2023-01-19T17:53:41.626Z,98.31
2023-01-19T17:56:10.929Z,97.26
2023-01-19T17:58:39.009Z,98.55
2023-01-19T18:01:15.697Z,98.93
2023-01-19T18:03:43.486Z,98.74
2023-01-19T18:06:11.182Z,97.66
2023-01-19T18:08:40.036Z,97.31
2023-01-19T18:11:07.688Z,97.04
2023-01-19T18:13:35.323Z,97.17
2023-01-19T18:16:06.596Z,97.61
2023-01-19T18:18:34.880Z,96.94
2023-01-19T18:21:04.416Z,97.21
2023-01-19T18:23:31.578Z,96.74
2023-01-19T18:26:04.667Z,96.44
2023-01-19T18:28:32.656Z,96.79
2023-01-19T18:31:00.257Z,96.41
2023-01-19T18:33:28.096Z,96.81
2023-01-19T18:35:55.282Z,97.19
2023-01-19T18:38:22.741Z,97.35
2023-01-19T18:40:50.027Z,96.75
2023-01-19T18:43:17.202Z,97.60
2023-01-19T18:45:48.025Z,96.70
2023-01-19T18:48:17.338Z,96.93
2023-01-19T18:50:45.440Z,97.38
2023-01-19T18:53:12.680Z,97.46
2023-01-19T18:55:39.868Z,96.69
2023-01-19T18:58:07.401Z,98.24
2023-01-19T19:00:34.605Z,98.13
2023-01-19T19:03:01.837Z,97.54
2023-01-19T19:05:29.412Z,97.21
2023-01-19T19:07:56.583Z,96.77
2023-01-19T19:10:23.752Z,97.17
2023-01-19T19:12:51.246Z,96.80
2023-01-19T19:15:18.582Z,96.33
2023-01-19T19:17:45.739Z,97.10
2023-01-19T19:20:13.663Z,95.98
2023-01-19T19:22:41.778Z,97.18
2023-01-19T19:25:11.156Z,96.81
2023-01-19T19:27:38.676Z,96.22
2023-01-19T19:30:06.515Z,95.63
2023-01-19T19:32:33.672Z,95.95
2023-01-19T19:35:01.296Z,96.63
2023-01-19T19:37:29.521Z,96.46
2023-01-19T19:39:57.737Z,96.53
2023-01-19T19:42:25.179Z,96.82
2023-01-19T19:44:55.069Z,96.71
2023-01-19T19:47:22.291Z,96.82
2023-01-19T19:49:49.786Z,97.39
2023-01-19T19:52:17.001Z,96.21
2023-01-19T19:54:45.173Z,97.77
2023-01-19T19:57:12.658Z,96.53
2023-01-19T19:59:39.813Z,96.94
2023-01-19T20:02:07.059Z,96.20
2023-01-19T20:04:35.872Z,96.21
2023-01-19T20:07:03.107Z,96.59
2023-01-19T20:09:30.321Z,97.26
2023-01-19T20:11:57.788Z,96.98
2023-01-19T20:14:25.268Z,97.36
2023-01-19T20:16:53.093Z,96.40
2023-01-19T20:19:20.575Z,96.42
2023-01-19T20:21:47.748Z,96.75
2023-01-19T20:24:17.724Z,96.48
2023-01-19T20:26:48.027Z,96.47
2023-01-19T20:29:15.205Z,96.90
2023-01-19T20:31:45.708Z,96.41
2023-01-19T20:34:15.683Z,96.63
2023-01-19T20:36:44.289Z,96.01
2023-01-19T20:39:12.705Z,96.20
2023-01-19T20:41:46.351Z,95.63
2023-01-19T20:44:16.298Z,95.16
2023-01-19T20:46:43.928Z,94.64
2023-01-19T20:49:11.440Z,94.32
2023-01-19T20:51:43.153Z,94.88
2023-01-19T20:54:12.137Z,94.67
2023-01-19T20:56:41.184Z,94.87
2023-01-19T20:59:09.525Z,94.12
2023-01-19T21:01:37.316Z,93.55
2023-01-19T21:04:04.932Z,94.30
2023-01-19T21:06:32.122Z,96.14
2023-01-19T21:08:59.636Z,95.96
2023-01-19T21:11:27.642Z,96.16
2023-01-19T21:13:57.853Z,95.02
2023-01-19T21:16:27.537Z,95.28
2023-01-19T21:18:54.900Z,95.29
2023-01-19T21:21:30.229Z,95.92
2023-01-19T21:24:00.142Z,94.79
2023-01-19T21:26:29.840Z,95.56
2023-01-19T21:28:58.243Z,95.33
2023-01-19T21:31:27.717Z,96.49
2023-01-19T21:33:56.292Z,95.35
2023-01-19T21:36:25.047Z,96.19
2023-01-19T21:38:52.667Z,96.45
2023-01-19T21:41:19.867Z,96.29
2023-01-19T21:43:47.278Z,96.41
2023-01-19T21:46:32.980Z,97.15
2023-01-19T21:49:02.248Z,95.94
2023-01-19T21:51:33.487Z,96.32
2023-01-19T21:54:01.866Z,95.82
2023-01-19T21:56:30.030Z,95.04
2023-01-19T21:58:57.973Z,93.85
2023-01-19T22:01:25.465Z,93.67
2023-01-19T22:03:54.825Z,93.27
2023-01-19T22:06:22.127Z,93.11
2023-01-19T22:08:49.312Z,94.02
2023-01-19T22:11:18.487Z,94.54
2023-01-19T22:13:45.767Z,93.80
2023-01-19T22:16:15.172Z,92.94
2023-01-19T22:18:44.700Z,92.42
2023-01-19T22:21:14.567Z,92.40
2023-01-19T22:23:42.127Z,91.94
2023-01-19T22:26:11.340Z,91.91
2023-01-19T22:28:38.491Z,92.06
2023-01-19T22:31:14.002Z,93.49
2023-01-19T22:33:41.580Z,93.85
2023-01-19T22:36:15.784Z,94.16
2023-01-19T22:38:44.292Z,93.55
2023-01-19T22:41:17.174Z,92.56
2023-01-19T22:43:44.701Z,91.43
2023-01-19T22:46:12.309Z,92.45
2023-01-19T22:48:40.541Z,92.39
2023-01-19T22:51:08.136Z,92.79
2023-01-19T22:53:35.389Z,91.69
2023-01-19T22:56:14.692Z,92.49
2023-01-19T22:58:44.253Z,92.38
2023-01-19T23:01:13.528Z,91.37
2023-01-19T23:03:41.512Z,92.87
2023-01-19T23:06:14.511Z,91.37
2023-01-19T23:08:42.025Z,91.28
2023-01-19T23:11:21.412Z,92.29
2023-01-19T23:13:49.335Z,93.77
2023-01-19T23:16:17.777Z,94.02
2023-01-19T23:18:45.369Z,94.26
2023-01-19T23:21:14.748Z,94.03
2023-01-19T23:23:43.102Z,94.99
2023-01-19T23:26:14.639Z,94.76
2023-01-19T23:28:42.290Z,93.61
2023-01-19T23:31:24.398Z,92.77
2023-01-19T23:33:53.871Z,92.13
2023-01-19T23:36:22.939Z,91.95
2023-01-19T23:38:52.233Z,91.52
2023-01-19T23:41:20.577Z,91.64
2023-01-19T23:43:48.099Z,91.81
2023-01-19T23:46:16.832Z,91.88
2023-01-19T23:48:44.564Z,91.36
2023-01-19T23:51:14.059Z,92.28
2023-01-19T23:53:41.510Z,92.43
2023-01-19T23:56:17.785Z,92.59
2023-01-19T23:58:53.185Z,92.48
